sensor_id;sensor_type;location;lat;lon;timestamp;P1;durP1;ratioP1;P2;durP2;ratioP2
18360;SDS011;9308;48.550;9.108;2022-12-18T00:03:56;72.83;;;43.43;;
18360;SDS011;9308;48.550;9.108;2022-12-18T00:06:23;62.17;;;40.77;;
18360;SDS011;9308;48.550;9.108;2022-12-18T00:08:49;73.97;;;44.17;;
18360;SDS011;9308;48.550;9.108;2022-12-18T00:11:23;63.60;;;40.50;;
18360;SDS011;9308;48.550;9.108;2022-12-18T00:13:50;65.60;;;41.37;;
18360;SDS011;9308;48.550;9.108;2022-12-18T00:16:17;63.00;;;40.30;;
18360;SDS011;9308;48.550;9.108;2022-12-18T00:18:48;63.57;;;41.60;;
18360;SDS011;9308;48.550;9.108;2022-12-18T00:21:15;56.50;;;40.73;;
18360;SDS011;9308;48.550;9.108;2022-12-18T00:23:41;60.30;;;39.30;;
18360;SDS011;9308;48.550;9.108;2022-12-18T00:26:13;59.00;;;38.43;;
18360;SDS011;9308;48.550;9.108;2022-12-18T00:28:40;58.23;;;39.40;;
18360;SDS011;9308;48.550;9.108;2022-12-18T00:31:07;54.70;;;36.90;;
18360;SDS011;9308;48.550;9.108;2022-12-18T00:33:35;60.30;;;38.93;;
18360;SDS011;9308;48.550;9.108;2022-12-18T00:36:02;59.33;;;37.77;;
18360;SDS011;9308;48.550;9.108;2022-12-18T00:38:28;55.50;;;38.20;;
18360;SDS011;9308;48.550;9.108;2022-12-18T00:40:54;57.77;;;38.50;;
18360;SDS011;9308;48.550;9.108;2022-12-18T00:43:19;54.07;;;36.70;;
18360;SDS011;9308;48.550;9.108;2022-12-18T00:45:45;52.33;;;36.40;;
18360;SDS011;9308;48.550;9.108;2022-12-18T00:48:10;52.60;;;38.60;;
18360;SDS011;9308;48.550;9.108;2022-12-18T00:50:36;54.50;;;36.47;;
18360;SDS011;9308;48.550;9.108;2022-12-18T00:53:01;54.33;;;37.50;;
18360;SDS011;9308;48.550;9.108;2022-12-18T00:55:26;58.33;;;38.10;;
18360;SDS011;9308;48.550;9.108;2022-12-18T00:57:52;56.70;;;38.70;;
18360;SDS011;9308;48.550;9.108;2022-12-18T01:00:18;58.20;;;36.37;;
18360;SDS011;9308;48.550;9.108;2022-12-18T01:02:43;66.83;;;38.83;;
18360;SDS011;9308;48.550;9.108;2022-12-18T01:05:10;59.50;;;37.20;;
18360;SDS011;9308;48.550;9.108;2022-12-18T01:07:37;58.93;;;37.17;;
18360;SDS011;9308;48.550;9.108;2022-12-18T01:10:03;58.10;;;35.70;;
18360;SDS011;9308;48.550;9.108;2022-12-18T01:12:30;56.07;;;35.07;;
18360;SDS011;9308;48.550;9.108;2022-12-18T01:14:55;52.27;;;34.93;;
18360;SDS011;9308;48.550;9.108;2022-12-18T01:17:21;49.40;;;32.60;;
18360;SDS011;9308;48.550;9.108;2022-12-18T01:19:47;55.60;;;36.07;;
18360;SDS011;9308;48.550;9.108;2022-12-18T01:22:12;52.37;;;33.07;;
18360;SDS011;9308;48.550;9.108;2022-12-18T01:24:37;54.57;;;34.77;;
18360;SDS011;9308;48.550;9.108;2022-12-18T01:27:03;48.67;;;32.23;;
18360;SDS011;9308;48.550;9.108;2022-12-18T01:29:28;47.30;;;32.83;;
18360;SDS011;9308;48.550;9.108;2022-12-18T01:31:54;50.43;;;34.53;;
18360;SDS011;9308;48.550;9.108;2022-12-18T01:34:21;54.00;;;35.23;;
18360;SDS011;9308;48.550;9.108;2022-12-18T01:36:47;51.40;;;33.60;;
18360;SDS011;9308;48.550;9.108;2022-12-18T01:39:13;49.50;;;33.13;;
18360;SDS011;9308;48.550;9.108;2022-12-18T01:41:39;54.93;;;33.90;;
18360;SDS011;9308;48.550;9.108;2022-12-18T01:47:18;47.90;;;31.03;;
18360;SDS011;9308;48.550;9.108;2022-12-18T01:49:47;42.73;;;30.17;;
18360;SDS011;9308;48.550;9.108;2022-12-18T01:52:13;47.43;;;32.13;;
18360;SDS011;9308;48.550;9.108;2022-12-18T01:54:39;44.80;;;32.30;;
18360;SDS011;9308;48.550;9.108;2022-12-18T01:57:05;46.23;;;31.83;;
18360;SDS011;9308;48.550;9.108;2022-12-18T01:59:31;46.77;;;32.77;;
18360;SDS011;9308;48.550;9.108;2022-12-18T02:01:59;49.70;;;32.73;;
18360;SDS011;9308;48.550;9.108;2022-12-18T02:04:26;47.07;;;33.27;;
18360;SDS011;9308;48.550;9.108;2022-12-18T02:09:54;47.97;;;32.97;;
18360;SDS011;9308;48.550;9.108;2022-12-18T02:15:26;43.73;;;31.37;;
18360;SDS011;9308;48.550;9.108;2022-12-18T02:18:08;41.37;;;30.33;;
18360;SDS011;9308;48.550;9.108;2022-12-18T02:20:36;43.57;;;33.13;;
18360;SDS011;9308;48.550;9.108;2022-12-18T02:23:28;46.97;;;31.27;;
18360;SDS011;9308;48.550;9.108;2022-12-18T02:28:56;47.20;;;32.40;;
18360;SDS011;9308;48.550;9.108;2022-12-18T02:31:26;45.70;;;32.80;;
18360;SDS011;9308;48.550;9.108;2022-12-18T02:33:55;48.43;;;32.50;;
18360;SDS011;9308;48.550;9.108;2022-12-18T02:36:23;47.47;;;31.90;;
18360;SDS011;9308;48.550;9.108;2022-12-18T02:38:51;47.63;;;32.83;;
18360;SDS011;9308;48.550;9.108;2022-12-18T02:41:18;45.83;;;33.10;;
18360;SDS011;9308;48.550;9.108;2022-12-18T02:44:06;49.40;;;33.20;;
18360;SDS011;9308;48.550;9.108;2022-12-18T02:46:46;43.07;;;31.40;;
18360;SDS011;9308;48.550;9.108;2022-12-18T02:51:57;48.67;;;33.03;;
18360;SDS011;9308;48.550;9.108;2022-12-18T02:54:36;46.23;;;32.90;;
18360;SDS011;9308;48.550;9.108;2022-12-18T02:57:16;41.60;;;31.50;;
18360;SDS011;9308;48.550;9.108;2022-12-18T03:00:12;39.13;;;29.27;;
18360;SDS011;9308;48.550;9.108;2022-12-18T03:02:53;41.70;;;31.00;;
18360;SDS011;9308;48.550;9.108;2022-12-18T03:05:36;43.83;;;33.30;;
18360;SDS011;9308;48.550;9.108;2022-12-18T03:08:06;38.60;;;31.50;;
18360;SDS011;9308;48.550;9.108;2022-12-18T03:10:45;44.27;;;32.20;;
18360;SDS011;9308;48.550;9.108;2022-12-18T03:13:31;46.03;;;33.37;;
18360;SDS011;9308;48.550;9.108;2022-12-18T03:16:01;43.33;;;33.50;;
18360;SDS011;9308;48.550;9.108;2022-12-18T03:21:03;45.87;;;33.13;;
18360;SDS011;9308;48.550;9.108;2022-12-18T03:23:33;48.40;;;35.27;;
18360;SDS011;9308;48.550;9.108;2022-12-18T03:26:05;43.20;;;35.33;;
18360;SDS011;9308;48.550;9.108;2022-12-18T03:28:35;45.73;;;36.23;;
18360;SDS011;9308;48.550;9.108;2022-12-18T03:31:04;49.53;;;36.23;;
18360;SDS011;9308;48.550;9.108;2022-12-18T03:36:22;51.47;;;39.00;;
18360;SDS011;9308;48.550;9.108;2022-12-18T03:38:49;53.40;;;37.03;;
18360;SDS011;9308;48.550;9.108;2022-12-18T03:41:16;58.67;;;40.17;;
18360;SDS011;9308;48.550;9.108;2022-12-18T03:46:31;49.57;;;36.67;;
18360;SDS011;9308;48.550;9.108;2022-12-18T03:49:08;49.00;;;36.40;;
18360;SDS011;9308;48.550;9.108;2022-12-18T03:51:52;48.00;;;34.97;;
18360;SDS011;9308;48.550;9.108;2022-12-18T03:54:25;51.50;;;34.83;;
18360;SDS011;9308;48.550;9.108;2022-12-18T03:56:56;44.60;;;33.70;;
18360;SDS011;9308;48.550;9.108;2022-12-18T03:59:25;44.33;;;33.23;;
18360;SDS011;9308;48.550;9.108;2022-12-18T04:01:54;44.23;;;32.70;;
18360;SDS011;9308;48.550;9.108;2022-12-18T04:04:27;43.03;;;33.77;;
18360;SDS011;9308;48.550;9.108;2022-12-18T04:06:53;43.63;;;34.70;;
18360;SDS011;9308;48.550;9.108;2022-12-18T04:09:20;48.57;;;37.00;;
18360;SDS011;9308;48.550;9.108;2022-12-18T04:11:46;46.13;;;35.10;;
18360;SDS011;9308;48.550;9.108;2022-12-18T04:14:12;43.73;;;34.53;;
18360;SDS011;9308;48.550;9.108;2022-12-18T04:16:38;41.00;;;32.07;;
18360;SDS011;9308;48.550;9.108;2022-12-18T04:19:04;45.77;;;35.83;;
18360;SDS011;9308;48.550;9.108;2022-12-18T04:21:29;49.93;;;35.03;;
18360;SDS011;9308;48.550;9.108;2022-12-18T04:23:55;43.87;;;33.60;;
18360;SDS011;9308;48.550;9.108;2022-12-18T04:26:20;47.53;;;32.67;;
18360;SDS011;9308;48.550;9.108;2022-12-18T04:28:46;40.60;;;30.27;;
18360;SDS011;9308;48.550;9.108;2022-12-18T04:31:11;46.23;;;31.87;;
18360;SDS011;9308;48.550;9.108;2022-12-18T04:33:37;44.97;;;31.50;;
18360;SDS011;9308;48.550;9.108;2022-12-18T04:36:02;39.07;;;31.80;;
18360;SDS011;9308;48.550;9.108;2022-12-18T04:38:28;42.90;;;32.47;;
18360;SDS011;9308;48.550;9.108;2022-12-18T04:40:54;41.70;;;30.50;;
18360;SDS011;9308;48.550;9.108;2022-12-18T04:43:19;43.37;;;31.73;;
18360;SDS011;9308;48.550;9.108;2022-12-18T04:45:45;38.47;;;29.67;;
18360;SDS011;9308;48.550;9.108;2022-12-18T04:48:11;37.40;;;30.40;;
18360;SDS011;9308;48.550;9.108;2022-12-18T04:50:37;41.13;;;31.57;;
18360;SDS011;9308;48.550;9.108;2022-12-18T04:53:02;37.20;;;28.10;;
18360;SDS011;9308;48.550;9.108;2022-12-18T04:55:28;43.50;;;31.40;;
18360;SDS011;9308;48.550;9.108;2022-12-18T04:57:53;42.23;;;31.60;;
18360;SDS011;9308;48.550;9.108;2022-12-18T05:00:19;41.17;;;29.73;;
18360;SDS011;9308;48.550;9.108;2022-12-18T05:02:45;38.47;;;31.00;;
18360;SDS011;9308;48.550;9.108;2022-12-18T05:05:10;37.97;;;30.43;;
18360;SDS011;9308;48.550;9.108;2022-12-18T05:07:37;38.63;;;29.27;;
18360;SDS011;9308;48.550;9.108;2022-12-18T05:10:03;41.30;;;29.73;;
18360;SDS011;9308;48.550;9.108;2022-12-18T05:12:30;37.00;;;28.43;;
18360;SDS011;9308;48.550;9.108;2022-12-18T05:14:56;41.30;;;29.93;;
18360;SDS011;9308;48.550;9.108;2022-12-18T05:17:21;37.00;;;28.40;;
18360;SDS011;9308;48.550;9.108;2022-12-18T05:19:47;36.40;;;28.87;;
18360;SDS011;9308;48.550;9.108;2022-12-18T05:22:12;36.00;;;28.93;;
18360;SDS011;9308;48.550;9.108;2022-12-18T05:24:37;38.93;;;29.60;;
18360;SDS011;9308;48.550;9.108;2022-12-18T05:27:03;43.00;;;32.73;;
18360;SDS011;9308;48.550;9.108;2022-12-18T05:29:28;35.87;;;28.03;;
18360;SDS011;9308;48.550;9.108;2022-12-18T05:31:54;37.93;;;29.93;;
18360;SDS011;9308;48.550;9.108;2022-12-18T05:34:19;41.37;;;30.63;;
18360;SDS011;9308;48.550;9.108;2022-12-18T05:36:45;43.23;;;29.87;;
18360;SDS011;9308;48.550;9.108;2022-12-18T05:39:10;35.60;;;28.80;;
18360;SDS011;9308;48.550;9.108;2022-12-18T05:41:36;38.30;;;29.30;;
18360;SDS011;9308;48.550;9.108;2022-12-18T05:44:01;39.20;;;29.77;;
18360;SDS011;9308;48.550;9.108;2022-12-18T05:46:27;40.63;;;29.13;;
18360;SDS011;9308;48.550;9.108;2022-12-18T05:48:52;38.67;;;29.70;;
18360;SDS011;9308;48.550;9.108;2022-12-18T05:51:19;33.80;;;27.03;;
18360;SDS011;9308;48.550;9.108;2022-12-18T05:53:46;34.03;;;26.57;;
18360;SDS011;9308;48.550;9.108;2022-12-18T05:56:13;38.03;;;28.10;;
18360;SDS011;9308;48.550;9.108;2022-12-18T05:58:40;36.57;;;27.70;;
18360;SDS011;9308;48.550;9.108;2022-12-18T06:01:16;38.33;;;27.93;;
18360;SDS011;9308;48.550;9.108;2022-12-18T06:03:43;36.67;;;27.83;;
18360;SDS011;9308;48.550;9.108;2022-12-18T06:06:18;34.80;;;28.03;;
18360;SDS011;9308;48.550;9.108;2022-12-18T06:08:44;37.37;;;26.83;;
18360;SDS011;9308;48.550;9.108;2022-12-18T06:11:10;37.50;;;28.20;;
18360;SDS011;9308;48.550;9.108;2022-12-18T06:13:36;41.00;;;29.53;;
18360;SDS011;9308;48.550;9.108;2022-12-18T06:16:05;36.03;;;30.50;;
18360;SDS011;9308;48.550;9.108;2022-12-18T06:18:31;44.37;;;33.57;;
18360;SDS011;9308;48.550;9.108;2022-12-18T06:20:57;45.80;;;33.50;;
18360;SDS011;9308;48.550;9.108;2022-12-18T06:23:24;40.03;;;31.77;;
18360;SDS011;9308;48.550;9.108;2022-12-18T06:25:49;39.27;;;29.40;;
18360;SDS011;9308;48.550;9.108;2022-12-18T06:28:15;32.60;;;26.63;;
18360;SDS011;9308;48.550;9.108;2022-12-18T06:30:43;37.57;;;27.50;;
18360;SDS011;9308;48.550;9.108;2022-12-18T06:33:09;32.80;;;27.03;;
18360;SDS011;9308;48.550;9.108;2022-12-18T06:35:35;41.13;;;30.07;;
18360;SDS011;9308;48.550;9.108;2022-12-18T06:38:01;36.60;;;28.70;;
18360;SDS011;9308;48.550;9.108;2022-12-18T06:40:27;36.33;;;29.80;;
18360;SDS011;9308;48.550;9.108;2022-12-18T06:42:53;38.83;;;32.23;;
18360;SDS011;9308;48.550;9.108;2022-12-18T06:45:18;37.67;;;30.67;;
18360;SDS011;9308;48.550;9.108;2022-12-18T06:47:44;33.70;;;27.10;;
18360;SDS011;9308;48.550;9.108;2022-12-18T06:50:10;34.93;;;27.97;;
18360;SDS011;9308;48.550;9.108;2022-12-18T06:52:35;32.97;;;27.60;;
18360;SDS011;9308;48.550;9.108;2022-12-18T06:55:02;36.43;;;27.30;;
18360;SDS011;9308;48.550;9.108;2022-12-18T06:57:28;32.80;;;24.77;;
18360;SDS011;9308;48.550;9.108;2022-12-18T06:59:53;31.40;;;25.00;;
18360;SDS011;9308;48.550;9.108;2022-12-18T07:02:19;32.10;;;25.67;;
18360;SDS011;9308;48.550;9.108;2022-12-18T07:04:44;36.33;;;28.37;;
18360;SDS011;9308;48.550;9.108;2022-12-18T07:07:09;39.37;;;30.87;;
18360;SDS011;9308;48.550;9.108;2022-12-18T07:09:35;39.80;;;33.13;;
18360;SDS011;9308;48.550;9.108;2022-12-18T07:12:00;40.00;;;31.80;;
18360;SDS011;9308;48.550;9.108;2022-12-18T07:14:26;36.03;;;28.87;;
18360;SDS011;9308;48.550;9.108;2022-12-18T07:16:51;31.77;;;25.80;;
18360;SDS011;9308;48.550;9.108;2022-12-18T07:19:17;37.13;;;28.40;;
18360;SDS011;9308;48.550;9.108;2022-12-18T07:21:42;33.83;;;26.40;;
18360;SDS011;9308;48.550;9.108;2022-12-18T07:24:08;30.53;;;24.90;;
18360;SDS011;9308;48.550;9.108;2022-12-18T07:26:33;32.07;;;24.07;;
18360;SDS011;9308;48.550;9.108;2022-12-18T07:28:59;30.77;;;24.40;;
18360;SDS011;9308;48.550;9.108;2022-12-18T07:31:25;32.10;;;24.67;;
18360;SDS011;9308;48.550;9.108;2022-12-18T07:33:51;39.07;;;26.30;;
18360;SDS011;9308;48.550;9.108;2022-12-18T07:36:17;35.23;;;28.43;;
18360;SDS011;9308;48.550;9.108;2022-12-18T07:38:43;31.50;;;26.30;;
18360;SDS011;9308;48.550;9.108;2022-12-18T07:41:12;34.13;;;25.80;;
18360;SDS011;9308;48.550;9.108;2022-12-18T07:43:39;33.63;;;24.80;;
18360;SDS011;9308;48.550;9.108;2022-12-18T07:46:05;30.83;;;24.40;;
18360;SDS011;9308;48.550;9.108;2022-12-18T07:48:31;31.37;;;25.43;;
18360;SDS011;9308;48.550;9.108;2022-12-18T07:51:00;34.10;;;25.27;;
18360;SDS011;9308;48.550;9.108;2022-12-18T07:53:28;32.70;;;26.30;;
18360;SDS011;9308;48.550;9.108;2022-12-18T07:56:00;37.63;;;28.10;;
18360;SDS011;9308;48.550;9.108;2022-12-18T07:58:28;35.10;;;28.70;;
18360;SDS011;9308;48.550;9.108;2022-12-18T08:01:01;36.00;;;27.97;;
18360;SDS011;9308;48.550;9.108;2022-12-18T08:03:30;33.43;;;26.97;;
18360;SDS011;9308;48.550;9.108;2022-12-18T08:05:59;37.13;;;28.10;;
18360;SDS011;9308;48.550;9.108;2022-12-18T08:08:26;40.23;;;29.50;;
18360;SDS011;9308;48.550;9.108;2022-12-18T08:10:51;38.90;;;32.27;;
18360;SDS011;9308;48.550;9.108;2022-12-18T08:13:17;44.43;;;31.00;;
18360;SDS011;9308;48.550;9.108;2022-12-18T08:15:42;40.87;;;30.40;;
18360;SDS011;9308;48.550;9.108;2022-12-18T08:18:08;44.40;;;34.67;;
18360;SDS011;9308;48.550;9.108;2022-12-18T08:20:33;47.50;;;36.13;;
18360;SDS011;9308;48.550;9.108;2022-12-18T08:22:59;42.60;;;32.60;;
18360;SDS011;9308;48.550;9.108;2022-12-18T08:25:24;42.60;;;30.90;;
18360;SDS011;9308;48.550;9.108;2022-12-18T08:27:50;40.37;;;29.13;;
18360;SDS011;9308;48.550;9.108;2022-12-18T08:30:16;40.03;;;28.97;;
18360;SDS011;9308;48.550;9.108;2022-12-18T08:32:41;37.00;;;28.63;;
18360;SDS011;9308;48.550;9.108;2022-12-18T08:35:07;46.37;;;31.03;;
18360;SDS011;9308;48.550;9.108;2022-12-18T08:37:33;39.83;;;31.33;;
18360;SDS011;9308;48.550;9.108;2022-12-18T08:39:59;39.70;;;32.97;;
18360;SDS011;9308;48.550;9.108;2022-12-18T08:42:25;40.97;;;32.80;;
18360;SDS011;9308;48.550;9.108;2022-12-18T08:45:26;42.40;;;32.73;;
18360;SDS011;9308;48.550;9.108;2022-12-18T08:47:51;42.07;;;32.17;;
18360;SDS011;9308;48.550;9.108;2022-12-18T08:50:17;46.77;;;35.23;;
18360;SDS011;9308;48.550;9.108;2022-12-18T08:52:42;40.80;;;33.33;;
18360;SDS011;9308;48.550;9.108;2022-12-18T08:55:08;45.40;;;38.10;;
18360;SDS011;9308;48.550;9.108;2022-12-18T08:57:35;42.60;;;34.60;;
18360;SDS011;9308;48.550;9.108;2022-12-18T09:00:00;41.73;;;34.70;;
18360;SDS011;9308;48.550;9.108;2022-12-18T09:02:26;43.03;;;35.00;;
18360;SDS011;9308;48.550;9.108;2022-12-18T09:04:51;38.57;;;32.33;;
18360;SDS011;9308;48.550;9.108;2022-12-18T09:07:16;40.70;;;31.40;;
18360;SDS011;9308;48.550;9.108;2022-12-18T09:09:42;38.13;;;28.90;;
18360;SDS011;9308;48.550;9.108;2022-12-18T09:12:07;39.77;;;30.67;;
18360;SDS011;9308;48.550;9.108;2022-12-18T09:14:34;62.10;;;45.00;;
18360;SDS011;9308;48.550;9.108;2022-12-18T09:16:59;37.93;;;31.03;;
18360;SDS011;9308;48.550;9.108;2022-12-18T09:19:24;42.47;;;33.10;;
18360;SDS011;9308;48.550;9.108;2022-12-18T09:21:50;45.07;;;35.97;;
18360;SDS011;9308;48.550;9.108;2022-12-18T09:24:16;48.00;;;36.33;;
18360;SDS011;9308;48.550;9.108;2022-12-18T09:26:41;53.07;;;41.57;;
18360;SDS011;9308;48.550;9.108;2022-12-18T09:29:07;59.53;;;47.80;;
18360;SDS011;9308;48.550;9.108;2022-12-18T09:31:33;58.83;;;48.03;;
18360;SDS011;9308;48.550;9.108;2022-12-18T09:33:59;59.33;;;48.20;;
18360;SDS011;9308;48.550;9.108;2022-12-18T09:36:24;55.03;;;43.83;;
18360;SDS011;9308;48.550;9.108;2022-12-18T09:38:50;53.53;;;40.53;;
18360;SDS011;9308;48.550;9.108;2022-12-18T09:41:19;49.93;;;40.10;;
18360;SDS011;9308;48.550;9.108;2022-12-18T09:43:57;49.17;;;39.37;;
18360;SDS011;9308;48.550;9.108;2022-12-18T09:46:31;52.23;;;37.33;;
18360;SDS011;9308;48.550;9.108;2022-12-18T09:49:00;46.97;;;36.47;;
18360;SDS011;9308;48.550;9.108;2022-12-18T09:51:32;41.73;;;34.13;;
18360;SDS011;9308;48.550;9.108;2022-12-18T09:54:06;47.27;;;35.80;;
18360;SDS011;9308;48.550;9.108;2022-12-18T09:56:39;45.67;;;33.63;;
18360;SDS011;9308;48.550;9.108;2022-12-18T10:02:10;44.60;;;31.87;;
18360;SDS011;9308;48.550;9.108;2022-12-18T10:04:39;44.53;;;31.03;;
18360;SDS011;9308;48.550;9.108;2022-12-18T10:07:07;42.20;;;29.10;;
18360;SDS011;9308;48.550;9.108;2022-12-18T10:09:58;42.10;;;31.30;;
18360;SDS011;9308;48.550;9.108;2022-12-18T10:13:29;38.40;;;30.33;;
18360;SDS011;9308;48.550;9.108;2022-12-18T10:15:24;39.10;;;28.97;;
18360;SDS011;9308;48.550;9.108;2022-12-18T10:18:03;63.67;;;40.90;;
18360;SDS011;9308;48.550;9.108;2022-12-18T10:20:47;51.97;;;34.93;;
18360;SDS011;9308;48.550;9.108;2022-12-18T10:28:27;44.13;;;32.00;;
18360;SDS011;9308;48.550;9.108;2022-12-18T10:30:55;46.07;;;31.53;;
18360;SDS011;9308;48.550;9.108;2022-12-18T10:33:27;49.70;;;30.83;;
18360;SDS011;9308;48.550;9.108;2022-12-18T10:35:54;46.53;;;31.07;;
18360;SDS011;9308;48.550;9.108;2022-12-18T10:38:24;44.90;;;31.00;;
18360;SDS011;9308;48.550;9.108;2022-12-18T10:40:55;44.20;;;30.80;;
18360;SDS011;9308;48.550;9.108;2022-12-18T10:43:25;43.53;;;30.30;;
18360;SDS011;9308;48.550;9.108;2022-12-18T10:48:39;41.90;;;29.27;;
18360;SDS011;9308;48.550;9.108;2022-12-18T10:51:24;44.10;;;29.93;;
18360;SDS011;9308;48.550;9.108;2022-12-18T10:56:26;45.57;;;29.77;;
18360;SDS011;9308;48.550;9.108;2022-12-18T10:58:58;40.87;;;29.13;;
18360;SDS011;9308;48.550;9.108;2022-12-18T11:01:26;41.13;;;27.63;;
18360;SDS011;9308;48.550;9.108;2022-12-18T11:06:19;38.43;;;28.43;;
18360;SDS011;9308;48.550;9.108;2022-12-18T11:08:58;41.43;;;26.57;;
18360;SDS011;9308;48.550;9.108;2022-12-18T11:11:25;44.10;;;30.10;;
18360;SDS011;9308;48.550;9.108;2022-12-18T11:13:57;40.60;;;28.20;;
18360;SDS011;9308;48.550;9.108;2022-12-18T11:16:26;43.60;;;29.77;;
18360;SDS011;9308;48.550;9.108;2022-12-18T11:18:53;49.37;;;33.20;;
18360;SDS011;9308;48.550;9.108;2022-12-18T11:21:19;44.57;;;30.47;;
18360;SDS011;9308;48.550;9.108;2022-12-18T11:23:51;45.53;;;32.47;;
18360;SDS011;9308;48.550;9.108;2022-12-18T11:26:18;49.83;;;32.87;;
18360;SDS011;9308;48.550;9.108;2022-12-18T11:33:59;41.40;;;27.73;;
18360;SDS011;9308;48.550;9.108;2022-12-18T11:36:31;44.20;;;29.60;;
18360;SDS011;9308;48.550;9.108;2022-12-18T11:39:00;42.07;;;26.93;;
18360;SDS011;9308;48.550;9.108;2022-12-18T11:41:37;41.33;;;28.23;;
18360;SDS011;9308;48.550;9.108;2022-12-18T11:44:35;36.97;;;27.53;;
18360;SDS011;9308;48.550;9.108;2022-12-18T11:47:32;38.00;;;28.07;;
18360;SDS011;9308;48.550;9.108;2022-12-18T11:50:05;39.13;;;26.30;;
18360;SDS011;9308;48.550;9.108;2022-12-18T11:52:47;41.97;;;27.30;;
18360;SDS011;9308;48.550;9.108;2022-12-18T11:55:14;39.00;;;25.87;;
18360;SDS011;9308;48.550;9.108;2022-12-18T12:00:36;45.40;;;29.60;;
18360;SDS011;9308;48.550;9.108;2022-12-18T12:03:39;44.27;;;31.27;;
18360;SDS011;9308;48.550;9.108;2022-12-18T12:06:23;41.50;;;29.13;;
18360;SDS011;9308;48.550;9.108;2022-12-18T12:09:05;42.07;;;28.60;;
18360;SDS011;9308;48.550;9.108;2022-12-18T12:11:44;42.53;;;28.57;;
18360;SDS011;9308;48.550;9.108;2022-12-18T12:17:03;41.43;;;26.83;;
18360;SDS011;9308;48.550;9.108;2022-12-18T12:19:53;42.53;;;28.07;;
18360;SDS011;9308;48.550;9.108;2022-12-18T12:22:48;42.13;;;28.00;;
18360;SDS011;9308;48.550;9.108;2022-12-18T12:25:23;38.70;;;26.73;;
18360;SDS011;9308;48.550;9.108;2022-12-18T12:36:49;42.30;;;29.20;;
18360;SDS011;9308;48.550;9.108;2022-12-18T12:39:26;42.00;;;29.07;;
18360;SDS011;9308;48.550;9.108;2022-12-18T12:41:55;41.30;;;28.60;;
18360;SDS011;9308;48.550;9.108;2022-12-18T12:44:42;39.07;;;27.47;;
18360;SDS011;9308;48.550;9.108;2022-12-18T12:47:23;42.50;;;30.10;;
18360;SDS011;9308;48.550;9.108;2022-12-18T12:49:52;41.20;;;30.00;;
18360;SDS011;9308;48.550;9.108;2022-12-18T12:52:30;40.13;;;29.03;;
18360;SDS011;9308;48.550;9.108;2022-12-18T12:54:59;39.67;;;29.70;;
18360;SDS011;9308;48.550;9.108;2022-12-18T12:57:30;42.50;;;29.60;;
18360;SDS011;9308;48.550;9.108;2022-12-18T13:00:33;41.97;;;30.47;;
18360;SDS011;9308;48.550;9.108;2022-12-18T13:05:45;48.03;;;31.80;;
18360;SDS011;9308;48.550;9.108;2022-12-18T13:08:25;42.10;;;31.10;;
18360;SDS011;9308;48.550;9.108;2022-12-18T13:10:54;45.13;;;32.10;;
18360;SDS011;9308;48.550;9.108;2022-12-18T13:13:52;45.30;;;31.97;;
18360;SDS011;9308;48.550;9.108;2022-12-18T13:16:19;49.40;;;32.73;;
18360;SDS011;9308;48.550;9.108;2022-12-18T13:18:50;45.17;;;32.87;;
18360;SDS011;9308;48.550;9.108;2022-12-18T13:21:29;47.80;;;32.77;;
18360;SDS011;9308;48.550;9.108;2022-12-18T13:24:14;48.80;;;34.77;;
18360;SDS011;9308;48.550;9.108;2022-12-18T13:26:46;49.80;;;34.90;;
18360;SDS011;9308;48.550;9.108;2022-12-18T13:29:11;49.90;;;34.10;;
18360;SDS011;9308;48.550;9.108;2022-12-18T13:32:19;45.20;;;35.60;;
18360;SDS011;9308;48.550;9.108;2022-12-18T13:34:46;48.00;;;36.10;;
18360;SDS011;9308;48.550;9.108;2022-12-18T13:39:56;49.27;;;35.23;;
18360;SDS011;9308;48.550;9.108;2022-12-18T13:48:11;51.00;;;35.10;;
18360;SDS011;9308;48.550;9.108;2022-12-18T13:50:41;48.50;;;34.70;;
18360;SDS011;9308;48.550;9.108;2022-12-18T13:53:12;54.23;;;35.57;;
18360;SDS011;9308;48.550;9.108;2022-12-18T13:55:45;47.27;;;35.30;;
18360;SDS011;9308;48.550;9.108;2022-12-18T13:58:11;50.40;;;36.87;;
18360;SDS011;9308;48.550;9.108;2022-12-18T14:00:40;50.50;;;36.43;;
18360;SDS011;9308;48.550;9.108;2022-12-18T14:03:23;51.07;;;36.67;;
18360;SDS011;9308;48.550;9.108;2022-12-18T14:05:55;48.73;;;37.17;;
18360;SDS011;9308;48.550;9.108;2022-12-18T14:08:25;58.47;;;39.83;;
18360;SDS011;9308;48.550;9.108;2022-12-18T14:10:57;59.57;;;40.20;;
18360;SDS011;9308;48.550;9.108;2022-12-18T14:13:30;55.17;;;39.60;;
18360;SDS011;9308;48.550;9.108;2022-12-18T14:15:57;53.67;;;39.97;;
18360;SDS011;9308;48.550;9.108;2022-12-18T14:18:41;54.80;;;41.80;;
18360;SDS011;9308;48.550;9.108;2022-12-18T14:21:30;51.13;;;39.67;;
18360;SDS011;9308;48.550;9.108;2022-12-18T14:24:06;62.23;;;42.43;;
18360;SDS011;9308;48.550;9.108;2022-12-18T14:26:39;62.17;;;42.83;;
18360;SDS011;9308;48.550;9.108;2022-12-18T14:29:22;58.80;;;45.43;;
18360;SDS011;9308;48.550;9.108;2022-12-18T14:32:12;66.13;;;46.43;;
18360;SDS011;9308;48.550;9.108;2022-12-18T14:34:46;71.83;;;49.97;;
18360;SDS011;9308;48.550;9.108;2022-12-18T14:37:13;65.23;;;46.87;;
18360;SDS011;9308;48.550;9.108;2022-12-18T14:39:40;66.00;;;47.10;;
18360;SDS011;9308;48.550;9.108;2022-12-18T14:42:16;69.33;;;47.60;;
18360;SDS011;9308;48.550;9.108;2022-12-18T14:44:42;67.53;;;48.40;;
18360;SDS011;9308;48.550;9.108;2022-12-18T14:47:12;67.50;;;48.60;;
18360;SDS011;9308;48.550;9.108;2022-12-18T14:49:39;66.67;;;47.97;;
18360;SDS011;9308;48.550;9.108;2022-12-18T14:52:20;73.70;;;49.00;;
18360;SDS011;9308;48.550;9.108;2022-12-18T14:54:50;66.40;;;46.23;;
18360;SDS011;9308;48.550;9.108;2022-12-18T14:57:24;104.90;;;58.30;;
18360;SDS011;9308;48.550;9.108;2022-12-18T14:59:53;83.57;;;51.00;;
18360;SDS011;9308;48.550;9.108;2022-12-18T15:02:20;66.20;;;49.90;;
18360;SDS011;9308;48.550;9.108;2022-12-18T15:07:50;51.87;;;38.03;;
18360;SDS011;9308;48.550;9.108;2022-12-18T15:10:24;61.03;;;43.93;;
18360;SDS011;9308;48.550;9.108;2022-12-18T15:20:42;66.33;;;47.23;;
18360;SDS011;9308;48.550;9.108;2022-12-18T15:23:24;78.50;;;50.03;;
18360;SDS011;9308;48.550;9.108;2022-12-18T15:26:02;68.63;;;47.63;;
18360;SDS011;9308;48.550;9.108;2022-12-18T15:33:41;59.40;;;41.77;;
18360;SDS011;9308;48.550;9.108;2022-12-18T15:36:10;57.27;;;39.67;;
18360;SDS011;9308;48.550;9.108;2022-12-18T15:38:37;52.77;;;39.10;;
18360;SDS011;9308;48.550;9.108;2022-12-18T15:41:02;55.13;;;42.10;;
18360;SDS011;9308;48.550;9.108;2022-12-18T15:43:28;56.60;;;40.10;;
18360;SDS011;9308;48.550;9.108;2022-12-18T15:46:00;54.93;;;40.80;;
18360;SDS011;9308;48.550;9.108;2022-12-18T15:48:39;55.70;;;39.80;;
18360;SDS011;9308;48.550;9.108;2022-12-18T15:51:10;55.70;;;39.40;;
18360;SDS011;9308;48.550;9.108;2022-12-18T15:53:40;59.70;;;45.13;;
18360;SDS011;9308;48.550;9.108;2022-12-18T15:56:08;55.87;;;41.23;;
18360;SDS011;9308;48.550;9.108;2022-12-18T15:58:54;55.67;;;38.03;;
18360;SDS011;9308;48.550;9.108;2022-12-18T16:01:20;60.50;;;43.07;;
18360;SDS011;9308;48.550;9.108;2022-12-18T16:03:47;58.70;;;42.70;;
18360;SDS011;9308;48.550;9.108;2022-12-18T16:06:12;59.80;;;44.27;;
18360;SDS011;9308;48.550;9.108;2022-12-18T16:08:38;66.20;;;46.40;;
18360;SDS011;9308;48.550;9.108;2022-12-18T16:11:03;62.30;;;43.80;;
18360;SDS011;9308;48.550;9.108;2022-12-18T16:13:28;58.63;;;41.13;;
18360;SDS011;9308;48.550;9.108;2022-12-18T16:15:54;57.70;;;39.30;;
18360;SDS011;9308;48.550;9.108;2022-12-18T16:18:19;55.13;;;37.93;;